sensor_id;sensor_type;location;lat;lon;timestamp;temperature;humidity
49765;DHT22;35657;51.204;-4.130;2023-05-10T00:01:48;13.00;99.90
49765;DHT22;35657;51.204;-4.130;2023-05-10T00:04:14;13.00;99.90
49765;DHT22;35657;51.204;-4.130;2023-05-10T00:06:40;12.90;99.90
49765;DHT22;35657;51.204;-4.130;2023-05-10T00:09:06;12.90;99.90
49765;DHT22;35657;51.204;-4.130;2023-05-10T00:11:32;12.90;99.90
49765;DHT22;35657;51.204;-4.130;2023-05-10T00:13:57;12.90;99.90
49765;DHT22;35657;51.204;-4.130;2023-05-10T00:16:23;12.90;99.90
49765;DHT22;35657;51.204;-4.130;2023-05-10T00:18:49;13.00;99.90
49765;DHT22;35657;51.204;-4.130;2023-05-10T00:21:14;13.10;99.90
49765;DHT22;35657;51.204;-4.130;2023-05-10T00:23:40;13.10;99.90
49765;DHT22;35657;51.204;-4.130;2023-05-10T00:26:06;13.20;99.90
49765;DHT22;35657;51.204;-4.130;2023-05-10T00:28:31;13.20;99.90
49765;DHT22;35657;51.204;-4.130;2023-05-10T00:30:57;13.20;99.90
49765;DHT22;35657;51.204;-4.130;2023-05-10T00:33:23;13.30;99.90
49765;DHT22;35657;51.204;-4.130;2023-05-10T00:35:48;13.30;99.90
49765;DHT22;35657;51.204;-4.130;2023-05-10T00:38:14;13.40;99.90
49765;DHT22;35657;51.204;-4.130;2023-05-10T00:40:40;13.30;99.90
49765;DHT22;35657;51.204;-4.130;2023-05-10T00:43:06;13.30;99.90
49765;DHT22;35657;51.204;-4.130;2023-05-10T00:45:33;13.20;99.90
49765;DHT22;35657;51.204;-4.130;2023-05-10T00:48:04;13.20;99.90
49765;DHT22;35657;51.204;-4.130;2023-05-10T00:50:31;13.10;99.90
49765;DHT22;35657;51.204;-4.130;2023-05-10T00:52:59;13.00;99.90
49765;DHT22;35657;51.204;-4.130;2023-05-10T00:55:25;13.00;99.90
49765;DHT22;35657;51.204;-4.130;2023-05-10T00:57:52;13.00;99.90
49765;DHT22;35657;51.204;-4.130;2023-05-10T01:00:18;12.90;99.90
49765;DHT22;35657;51.204;-4.130;2023-05-10T01:02:47;12.90;99.90
49765;DHT22;35657;51.204;-4.130;2023-05-10T01:05:13;12.90;99.90
49765;DHT22;35657;51.204;-4.130;2023-05-10T01:07:39;12.90;99.90
49765;DHT22;35657;51.204;-4.130;2023-05-10T01:10:07;12.90;99.90
49765;DHT22;35657;51.204;-4.130;2023-05-10T01:12:38;12.90;99.90
49765;DHT22;35657;51.204;-4.130;2023-05-10T01:15:06;12.90;99.90
49765;DHT22;35657;51.204;-4.130;2023-05-10T01:17:34;12.90;99.90
49765;DHT22;35657;51.204;-4.130;2023-05-10T01:20:01;12.90;99.90
49765;DHT22;35657;51.204;-4.130;2023-05-10T01:36:45;12.90;99.90
49765;DHT22;35657;51.204;-4.130;2023-05-10T01:39:24;12.90;99.90
49765;DHT22;35657;51.204;-4.130;2023-05-10T01:41:55;12.90;99.90
49765;DHT22;35657;51.204;-4.130;2023-05-10T01:44:31;12.90;99.90
49765;DHT22;35657;51.204;-4.130;2023-05-10T01:49:55;13.00;99.90
49765;DHT22;35657;51.204;-4.130;2023-05-10T01:52:27;13.00;99.90
49765;DHT22;35657;51.204;-4.130;2023-05-10T01:54:59;13.10;99.90
49765;DHT22;35657;51.204;-4.130;2023-05-10T01:57:26;13.20;99.90
49765;DHT22;35657;51.204;-4.130;2023-05-10T01:59:53;13.20;99.90
49765;DHT22;35657;51.204;-4.130;2023-05-10T02:02:21;13.20;99.90
49765;DHT22;35657;51.204;-4.130;2023-05-10T02:04:49;13.30;99.90
49765;DHT22;35657;51.204;-4.130;2023-05-10T02:07:16;13.30;99.90
49765;DHT22;35657;51.204;-4.130;2023-05-10T02:09:44;13.30;99.90
49765;DHT22;35657;51.204;-4.130;2023-05-10T02:12:14;13.30;99.90
49765;DHT22;35657;51.204;-4.130;2023-05-10T02:14:41;13.30;99.90
49765;DHT22;35657;51.204;-4.130;2023-05-10T02:17:09;13.20;99.90
49765;DHT22;35657;51.204;-4.130;2023-05-10T02:19:38;13.20;99.90
49765;DHT22;35657;51.204;-4.130;2023-05-10T02:22:06;13.10;99.90
49765;DHT22;35657;51.204;-4.130;2023-05-10T02:24:34;13.10;99.90
49765;DHT22;35657;51.204;-4.130;2023-05-10T02:27:02;13.00;99.90
49765;DHT22;35657;51.204;-4.130;2023-05-10T02:29:29;13.00;99.90
49765;DHT22;35657;51.204;-4.130;2023-05-10T02:31:57;12.90;99.90
49765;DHT22;35657;51.204;-4.130;2023-05-10T02:34:25;13.00;99.90
49765;DHT22;35657;51.204;-4.130;2023-05-10T02:36:53;12.90;99.90
49765;DHT22;35657;51.204;-4.130;2023-05-10T02:39:19;12.90;99.90
49765;DHT22;35657;51.204;-4.130;2023-05-10T02:41:48;12.90;99.90
49765;DHT22;35657;51.204;-4.130;2023-05-10T02:44:15;12.90;99.90
49765;DHT22;35657;51.204;-4.130;2023-05-10T02:46:43;12.90;99.90
49765;DHT22;35657;51.204;-4.130;2023-05-10T02:49:09;12.90;99.90
49765;DHT22;35657;51.204;-4.130;2023-05-10T02:51:36;12.90;99.90
49765;DHT22;35657;51.204;-4.130;2023-05-10T02:54:09;12.90;99.90
49765;DHT22;35657;51.204;-4.130;2023-05-10T02:56:36;12.90;99.90
49765;DHT22;35657;51.204;-4.130;2023-05-10T02:59:05;12.90;99.90
49765;DHT22;35657;51.204;-4.130;2023-05-10T03:01:31;12.90;99.90
49765;DHT22;35657;51.204;-4.130;2023-05-10T03:03:56;12.90;99.90
49765;DHT22;35657;51.204;-4.130;2023-05-10T03:06:22;12.90;99.90
49765;DHT22;35657;51.204;-4.130;2023-05-10T03:08:48;12.90;99.90
49765;DHT22;35657;51.204;-4.130;2023-05-10T03:11:38;12.90;99.90
49765;DHT22;35657;51.204;-4.130;2023-05-10T03:14:10;12.90;99.90
49765;DHT22;35657;51.204;-4.130;2023-05-10T03:16:45;12.90;99.90
49765;DHT22;35657;51.204;-4.130;2023-05-10T03:19:20;12.90;99.90
49765;DHT22;35657;51.204;-4.130;2023-05-10T03:21:50;13.00;99.90
49765;DHT22;35657;51.204;-4.130;2023-05-10T03:24:20;13.10;99.90
49765;DHT22;35657;51.204;-4.130;2023-05-10T03:26:46;13.20;99.90
49765;DHT22;35657;51.204;-4.130;2023-05-10T03:29:13;13.20;99.90
49765;DHT22;35657;51.204;-4.130;2023-05-10T03:31:41;13.20;99.90
49765;DHT22;35657;51.204;-4.130;2023-05-10T03:34:06;13.30;99.90
49765;DHT22;35657;51.204;-4.130;2023-05-10T03:36:32;13.30;99.90
49765;DHT22;35657;51.204;-4.130;2023-05-10T03:38:58;13.30;99.90
49765;DHT22;35657;51.204;-4.130;2023-05-10T03:41:24;13.40;99.90
49765;DHT22;35657;51.204;-4.130;2023-05-10T03:43:51;13.40;99.90
49765;DHT22;35657;51.204;-4.130;2023-05-10T03:46:16;13.40;99.90
49765;DHT22;35657;51.204;-4.130;2023-05-10T03:48:42;13.30;99.90
49765;DHT22;35657;51.204;-4.130;2023-05-10T03:51:08;13.20;99.90
49765;DHT22;35657;51.204;-4.130;2023-05-10T03:53:34;13.10;99.90
49765;DHT22;35657;51.204;-4.130;2023-05-10T03:55:59;13.10;99.90
49765;DHT22;35657;51.204;-4.130;2023-05-10T03:58:25;13.10;99.90
49765;DHT22;35657;51.204;-4.130;2023-05-10T04:00:51;13.00;99.90
49765;DHT22;35657;51.204;-4.130;2023-05-10T04:03:17;13.00;99.90
49765;DHT22;35657;51.204;-4.130;2023-05-10T04:05:43;13.00;99.90
49765;DHT22;35657;51.204;-4.130;2023-05-10T04:08:09;13.00;99.90
49765;DHT22;35657;51.204;-4.130;2023-05-10T04:10:35;12.90;99.90
49765;DHT22;35657;51.204;-4.130;2023-05-10T04:13:00;13.00;99.90
49765;DHT22;35657;51.204;-4.130;2023-05-10T04:15:26;12.90;99.90
49765;DHT22;35657;51.204;-4.130;2023-05-10T04:17:52;12.90;99.90
49765;DHT22;35657;51.204;-4.130;2023-05-10T04:20:18;12.90;99.90
49765;DHT22;35657;51.204;-4.130;2023-05-10T04:22:44;12.90;99.90
49765;DHT22;35657;51.204;-4.130;2023-05-10T04:25:10;12.90;99.90
49765;DHT22;35657;51.204;-4.130;2023-05-10T04:27:36;12.90;99.90
49765;DHT22;35657;51.204;-4.130;2023-05-10T04:30:02;12.90;99.90
49765;DHT22;35657;51.204;-4.130;2023-05-10T04:32:28;12.90;99.90
49765;DHT22;35657;51.204;-4.130;2023-05-10T04:34:54;12.90;99.90
49765;DHT22;35657;51.204;-4.130;2023-05-10T04:37:20;12.90;99.90
49765;DHT22;35657;51.204;-4.130;2023-05-10T04:39:46;12.90;99.90
49765;DHT22;35657;51.204;-4.130;2023-05-10T04:42:12;12.90;99.90
49765;DHT22;35657;51.204;-4.130;2023-05-10T04:44:40;12.90;99.90
49765;DHT22;35657;51.204;-4.130;2023-05-10T04:47:06;12.90;99.90
49765;DHT22;35657;51.204;-4.130;2023-05-10T04:49:32;12.90;99.90
49765;DHT22;35657;51.204;-4.130;2023-05-10T04:51:57;12.90;99.90
49765;DHT22;35657;51.204;-4.130;2023-05-10T04:54:23;13.00;99.90
49765;DHT22;35657;51.204;-4.130;2023-05-10T04:56:49;13.00;99.90
49765;DHT22;35657;51.204;-4.130;2023-05-10T04:59:14;13.10;99.90
49765;DHT22;35657;51.204;-4.130;2023-05-10T05:01:40;13.10;99.90
49765;DHT22;35657;51.204;-4.130;2023-05-10T05:04:06;13.20;99.90
49765;DHT22;35657;51.204;-4.130;2023-05-10T05:06:32;13.20;99.90
49765;DHT22;35657;51.204;-4.130;2023-05-10T05:08:58;13.20;99.90
49765;DHT22;35657;51.204;-4.130;2023-05-10T05:11:23;13.20;99.90
49765;DHT22;35657;51.204;-4.130;2023-05-10T05:13:49;13.30;99.90
49765;DHT22;35657;51.204;-4.130;2023-05-10T05:16:15;13.30;99.90
49765;DHT22;35657;51.204;-4.130;2023-05-10T05:18:40;13.30;99.90
49765;DHT22;35657;51.204;-4.130;2023-05-10T05:21:24;13.20;99.90
49765;DHT22;35657;51.204;-4.130;2023-05-10T05:23:52;13.10;99.90
49765;DHT22;35657;51.204;-4.130;2023-05-10T05:26:17;13.00;99.90
49765;DHT22;35657;51.204;-4.130;2023-05-10T05:28:43;13.00;99.90
49765;DHT22;35657;51.204;-4.130;2023-05-10T05:31:09;13.00;99.90
49765;DHT22;35657;51.204;-4.130;2023-05-10T05:33:34;13.00;99.90
49765;DHT22;35657;51.204;-4.130;2023-05-10T05:36:01;12.90;99.90
49765;DHT22;35657;51.204;-4.130;2023-05-10T05:38:27;12.90;99.90
49765;DHT22;35657;51.204;-4.130;2023-05-10T05:40:52;12.90;99.90
49765;DHT22;35657;51.204;-4.130;2023-05-10T05:43:18;12.90;99.90
49765;DHT22;35657;51.204;-4.130;2023-05-10T05:45:44;12.90;99.90
49765;DHT22;35657;51.204;-4.130;2023-05-10T05:48:09;12.90;99.90
49765;DHT22;35657;51.204;-4.130;2023-05-10T05:50:35;12.80;99.90
49765;DHT22;35657;51.204;-4.130;2023-05-10T05:53:01;12.80;99.90
49765;DHT22;35657;51.204;-4.130;2023-05-10T05:55:27;12.80;99.90
49765;DHT22;35657;51.204;-4.130;2023-05-10T05:57:52;12.80;99.90
49765;DHT22;35657;51.204;-4.130;2023-05-10T06:00:19;12.80;99.90
49765;DHT22;35657;51.204;-4.130;2023-05-10T06:02:44;12.90;99.90
49765;DHT22;35657;51.204;-4.130;2023-05-10T06:05:10;12.90;99.90
49765;DHT22;35657;51.204;-4.130;2023-05-10T06:07:36;12.90;99.90
49765;DHT22;35657;51.204;-4.130;2023-05-10T06:10:02;12.90;99.90
49765;DHT22;35657;51.204;-4.130;2023-05-10T06:12:28;12.90;99.90
49765;DHT22;35657;51.204;-4.130;2023-05-10T06:14:53;12.90;99.90
49765;DHT22;35657;51.204;-4.130;2023-05-10T06:17:19;12.90;99.90
49765;DHT22;35657;51.204;-4.130;2023-05-10T06:19:45;12.90;99.90
49765;DHT22;35657;51.204;-4.130;2023-05-10T06:22:11;12.90;99.90
49765;DHT22;35657;51.204;-4.130;2023-05-10T06:24:36;12.90;99.90
49765;DHT22;35657;51.204;-4.130;2023-05-10T06:27:02;13.10;99.90
49765;DHT22;35657;51.204;-4.130;2023-05-10T06:29:28;13.20;99.90
49765;DHT22;35657;51.204;-4.130;2023-05-10T06:31:53;13.30;99.90
49765;DHT22;35657;51.204;-4.130;2023-05-10T06:34:19;13.40;99.90
49765;DHT22;35657;51.204;-4.130;2023-05-10T06:36:45;13.50;99.90
49765;DHT22;35657;51.204;-4.130;2023-05-10T06:39:11;13.50;99.90
49765;DHT22;35657;51.204;-4.130;2023-05-10T06:41:37;13.60;99.90
49765;DHT22;35657;51.204;-4.130;2023-05-10T06:44:03;13.70;99.90
49765;DHT22;35657;51.204;-4.130;2023-05-10T06:46:29;13.70;99.90
49765;DHT22;35657;51.204;-4.130;2023-05-10T06:48:55;13.80;99.90
49765;DHT22;35657;51.204;-4.130;2023-05-10T06:51:20;13.70;99.90
49765;DHT22;35657;51.204;-4.130;2023-05-10T06:53:46;13.70;99.90
49765;DHT22;35657;51.204;-4.130;2023-05-10T06:56:12;13.60;99.90
49765;DHT22;35657;51.204;-4.130;2023-05-10T06:58:38;13.70;99.90
49765;DHT22;35657;51.204;-4.130;2023-05-10T07:01:04;13.60;99.90
49765;DHT22;35657;51.204;-4.130;2023-05-10T07:03:31;13.60;99.90
49765;DHT22;35657;51.204;-4.130;2023-05-10T07:06:01;13.60;99.90
49765;DHT22;35657;51.204;-4.130;2023-05-10T07:08:29;13.70;99.90
49765;DHT22;35657;51.204;-4.130;2023-05-10T07:11:03;13.70;99.90
49765;DHT22;35657;51.204;-4.130;2023-05-10T07:13:32;13.70;99.90
49765;DHT22;35657;51.204;-4.130;2023-05-10T07:15:58;13.70;99.90
49765;DHT22;35657;51.204;-4.130;2023-05-10T07:18:24;13.70;99.90
49765;DHT22;35657;51.204;-4.130;2023-05-10T07:20:50;13.80;99.90
49765;DHT22;35657;51.204;-4.130;2023-05-10T07:23:16;13.80;99.90
49765;DHT22;35657;51.204;-4.130;2023-05-10T07:25:49;13.80;99.90
49765;DHT22;35657;51.204;-4.130;2023-05-10T07:28:18;13.80;99.90
49765;DHT22;35657;51.204;-4.130;2023-05-10T07:30:44;13.80;99.90
49765;DHT22;35657;51.204;-4.130;2023-05-10T07:33:11;13.70;99.90
49765;DHT22;35657;51.204;-4.130;2023-05-10T07:35:37;13.80;99.90
49765;DHT22;35657;51.204;-4.130;2023-05-10T07:38:03;13.80;99.90
49765;DHT22;35657;51.204;-4.130;2023-05-10T07:40:29;13.90;99.90
49765;DHT22;35657;51.204;-4.130;2023-05-10T07:42:55;13.90;99.90
49765;DHT22;35657;51.204;-4.130;2023-05-10T07:45:20;13.90;99.90
49765;DHT22;35657;51.204;-4.130;2023-05-10T07:47:46;14.00;99.90
49765;DHT22;35657;51.204;-4.130;2023-05-10T07:50:12;14.00;99.90
49765;DHT22;35657;51.204;-4.130;2023-05-10T07:52:38;14.00;99.90
49765;DHT22;35657;51.204;-4.130;2023-05-10T07:55:03;14.10;99.90
49765;DHT22;35657;51.204;-4.130;2023-05-10T07:57:30;14.30;99.90
49765;DHT22;35657;51.204;-4.130;2023-05-10T07:59:56;14.40;99.90
49765;DHT22;35657;51.204;-4.130;2023-05-10T08:02:21;14.50;99.90
49765;DHT22;35657;51.204;-4.130;2023-05-10T08:04:47;14.60;99.90
49765;DHT22;35657;51.204;-4.130;2023-05-10T08:07:13;14.70;99.90
49765;DHT22;35657;51.204;-4.130;2023-05-10T08:09:39;14.70;99.90
49765;DHT22;35657;51.204;-4.130;2023-05-10T08:12:05;14.70;99.90
49765;DHT22;35657;51.204;-4.130;2023-05-10T08:14:32;14.70;99.90
49765;DHT22;35657;51.204;-4.130;2023-05-10T08:16:58;14.60;99.90
49765;DHT22;35657;51.204;-4.130;2023-05-10T08:19:23;14.60;99.90
49765;DHT22;35657;51.204;-4.130;2023-05-10T08:21:49;14.50;99.90
49765;DHT22;35657;51.204;-4.130;2023-05-10T08:24:15;14.40;99.90
49765;DHT22;35657;51.204;-4.130;2023-05-10T08:26:40;14.50;99.90
49765;DHT22;35657;51.204;-4.130;2023-05-10T08:29:06;14.50;99.90
49765;DHT22;35657;51.204;-4.130;2023-05-10T08:31:32;14.50;99.90
49765;DHT22;35657;51.204;-4.130;2023-05-10T08:33:57;14.50;99.90
49765;DHT22;35657;51.204;-4.130;2023-05-10T08:36:23;14.50;99.90
49765;DHT22;35657;51.204;-4.130;2023-05-10T08:38:53;14.50;99.90
49765;DHT22;35657;51.204;-4.130;2023-05-10T08:41:23;14.60;99.90
49765;DHT22;35657;51.204;-4.130;2023-05-10T08:43:55;14.70;99.90
49765;DHT22;35657;51.204;-4.130;2023-05-10T08:46:22;14.80;99.90
49765;DHT22;35657;51.204;-4.130;2023-05-10T08:48:50;14.90;99.90
49765;DHT22;35657;51.204;-4.130;2023-05-10T08:51:23;14.90;99.90
49765;DHT22;35657;51.204;-4.130;2023-05-10T08:53:52;14.90;99.90
49765;DHT22;35657;51.204;-4.130;2023-05-10T08:56:18;14.90;99.90
49765;DHT22;35657;51.204;-4.130;2023-05-10T08:58:45;15.00;99.90
49765;DHT22;35657;51.204;-4.130;2023-05-10T09:01:11;15.20;99.90
49765;DHT22;35657;51.204;-4.130;2023-05-10T09:03:38;15.10;99.90
49765;DHT22;35657;51.204;-4.130;2023-05-10T09:06:04;15.20;99.90
49765;DHT22;35657;51.204;-4.130;2023-05-10T09:08:30;15.10;99.90
49765;DHT22;35657;51.204;-4.130;2023-05-10T09:10:56;15.20;99.90
49765;DHT22;35657;51.204;-4.130;2023-05-10T09:13:23;15.20;99.90
49765;DHT22;35657;51.204;-4.130;2023-05-10T09:15:51;15.20;99.90
49765;DHT22;35657;51.204;-4.130;2023-05-10T09:18:17;15.20;99.90
49765;DHT22;35657;51.204;-4.130;2023-05-10T09:20:43;15.40;99.90
49765;DHT22;35657;51.204;-4.130;2023-05-10T09:23:08;15.40;99.90
49765;DHT22;35657;51.204;-4.130;2023-05-10T09:25:34;15.50;99.90
49765;DHT22;35657;51.204;-4.130;2023-05-10T09:28:00;15.50;99.90
49765;DHT22;35657;51.204;-4.130;2023-05-10T09:30:30;15.70;99.90
49765;DHT22;35657;51.204;-4.130;2023-05-10T09:32:57;15.70;99.90
49765;DHT22;35657;51.204;-4.130;2023-05-10T09:35:25;15.70;99.90
49765;DHT22;35657;51.204;-4.130;2023-05-10T09:37:53;15.80;99.90
49765;DHT22;35657;51.204;-4.130;2023-05-10T09:40:21;16.00;99.90
49765;DHT22;35657;51.204;-4.130;2023-05-10T09:42:54;16.00;99.90
49765;DHT22;35657;51.204;-4.130;2023-05-10T09:45:20;16.00;99.90
49765;DHT22;35657;51.204;-4.130;2023-05-10T09:47:46;16.10;99.90
49765;DHT22;35657;51.204;-4.130;2023-05-10T09:50:12;16.10;99.90
49765;DHT22;35657;51.204;-4.130;2023-05-10T09:52:53;16.00;99.90
49765;DHT22;35657;51.204;-4.130;2023-05-10T09:55:21;16.10;99.90
49765;DHT22;35657;51.204;-4.130;2023-05-10T09:57:47;16.20;99.90
49765;DHT22;35657;51.204;-4.130;2023-05-10T10:00:20;16.30;99.90
49765;DHT22;35657;51.204;-4.130;2023-05-10T10:02:54;16.30;99.90
49765;DHT22;35657;51.204;-4.130;2023-05-10T10:05:20;16.50;99.90
49765;DHT22;35657;51.204;-4.130;2023-05-10T10:07:46;16.60;99.90
49765;DHT22;35657;51.204;-4.130;2023-05-10T10:10:12;16.80;99.90
49765;DHT22;35657;51.204;-4.130;2023-05-10T10:12:39;16.90;99.90
49765;DHT22;35657;51.204;-4.130;2023-05-10T10:15:08;17.10;99.90
49765;DHT22;35657;51.204;-4.130;2023-05-10T10:17:36;17.30;99.90
49765;DHT22;35657;51.204;-4.130;2023-05-10T10:20:03;17.20;99.90
49765;DHT22;35657;51.204;-4.130;2023-05-10T10:22:29;17.50;99.90
49765;DHT22;35657;51.204;-4.130;2023-05-10T10:24:55;17.60;99.90
49765;DHT22;35657;51.204;-4.130;2023-05-10T10:27:30;17.50;99.90
49765;DHT22;35657;51.204;-4.130;2023-05-10T10:32:59;17.30;99.90
49765;DHT22;35657;51.204;-4.130;2023-05-10T10:35:30;17.40;99.90
49765;DHT22;35657;51.204;-4.130;2023-05-10T10:37:56;17.50;99.90
49765;DHT22;35657;51.204;-4.130;2023-05-10T10:40:29;17.40;99.90
49765;DHT22;35657;51.204;-4.130;2023-05-10T10:42:56;17.00;99.90
49765;DHT22;35657;51.204;-4.130;2023-05-10T10:45:23;17.00;99.90
49765;DHT22;35657;51.204;-4.130;2023-05-10T10:47:53;17.20;99.90
49765;DHT22;35657;51.204;-4.130;2023-05-10T10:50:19;17.40;99.90
49765;DHT22;35657;51.204;-4.130;2023-05-10T10:52:45;17.70;99.90
49765;DHT22;35657;51.204;-4.130;2023-05-10T10:55:14;17.70;99.90
49765;DHT22;35657;51.204;-4.130;2023-05-10T11:07:58;18.10;99.90
49765;DHT22;35657;51.204;-4.130;2023-05-10T11:10:26;18.10;99.90
49765;DHT22;35657;51.204;-4.130;2023-05-10T11:13:01;18.10;99.90
49765;DHT22;35657;51.204;-4.130;2023-05-10T11:15:34;18.40;99.90
49765;DHT22;35657;51.204;-4.130;2023-05-10T11:18:17;17.90;99.90
49765;DHT22;35657;51.204;-4.130;2023-05-10T11:20:43;18.20;99.90
49765;DHT22;35657;51.204;-4.130;2023-05-10T11:23:12;18.10;99.90
49765;DHT22;35657;51.204;-4.130;2023-05-10T11:25:42;18.10;99.90
49765;DHT22;35657;51.204;-4.130;2023-05-10T11:28:08;18.10;99.90
49765;DHT22;35657;51.204;-4.130;2023-05-10T11:30:36;18.10;99.90
49765;DHT22;35657;51.204;-4.130;2023-05-10T11:33:02;18.30;99.90
49765;DHT22;35657;51.204;-4.130;2023-05-10T11:35:28;18.00;99.90
49765;DHT22;35657;51.204;-4.130;2023-05-10T11:37:54;18.30;99.90
49765;DHT22;35657;51.204;-4.130;2023-05-10T11:40:21;18.40;99.90
49765;DHT22;35657;51.204;-4.130;2023-05-10T11:42:50;18.50;99.90
49765;DHT22;35657;51.204;-4.130;2023-05-10T11:45:16;18.70;99.90
49765;DHT22;35657;51.204;-4.130;2023-05-10T11:47:41;18.50;99.90
49765;DHT22;35657;51.204;-4.130;2023-05-10T11:50:10;18.80;99.90
49765;DHT22;35657;51.204;-4.130;2023-05-10T11:52:36;19.00;99.90
49765;DHT22;35657;51.204;-4.130;2023-05-10T11:55:05;19.00;99.90
49765;DHT22;35657;51.204;-4.130;2023-05-10T11:57:31;18.90;99.90
49765;DHT22;35657;51.204;-4.130;2023-05-10T11:59:57;19.00;99.90
49765;DHT22;35657;51.204;-4.130;2023-05-10T12:02:23;19.00;99.90
49765;DHT22;35657;51.204;-4.130;2023-05-10T12:04:49;18.60;99.90
49765;DHT22;35657;51.204;-4.130;2023-05-10T12:07:16;18.30;99.90
49765;DHT22;35657;51.204;-4.130;2023-05-10T12:10:02;18.60;99.90
49765;DHT22;35657;51.204;-4.130;2023-05-10T12:12:34;18.70;99.90
49765;DHT22;35657;51.204;-4.130;2023-05-10T12:15:00;18.30;99.90
49765;DHT22;35657;51.204;-4.130;2023-05-10T12:17:29;17.80;99.90
49765;DHT22;35657;51.204;-4.130;2023-05-10T12:19:59;18.30;99.90
49765;DHT22;35657;51.204;-4.130;2023-05-10T12:22:37;18.20;99.90
49765;DHT22;35657;51.204;-4.130;2023-05-10T12:25:03;18.30;99.90
49765;DHT22;35657;51.204;-4.130;2023-05-10T12:27:32;18.00;99.90
49765;DHT22;35657;51.204;-4.130;2023-05-10T12:29:59;17.70;99.90
49765;DHT22;35657;51.204;-4.130;2023-05-10T12:32:40;18.10;99.90
49765;DHT22;35657;51.204;-4.130;2023-05-10T12:35:07;18.10;99.90
49765;DHT22;35657;51.204;-4.130;2023-05-10T12:37:33;18.00;99.90
49765;DHT22;35657;51.204;-4.130;2023-05-10T12:40:08;18.20;99.90
49765;DHT22;35657;51.204;-4.130;2023-05-10T12:42:35;18.10;99.90
49765;DHT22;35657;51.204;-4.130;2023-05-10T12:45:01;18.00;99.90
49765;DHT22;35657;51.204;-4.130;2023-05-10T12:47:28;18.00;99.90
49765;DHT22;35657;51.204;-4.130;2023-05-10T12:49:53;17.60;99.90
49765;DHT22;35657;51.204;-4.130;2023-05-10T12:52:19;17.80;99.90
49765;DHT22;35657;51.204;-4.130;2023-05-10T12:54:45;18.00;99.90
49765;DHT22;35657;51.204;-4.130;2023-05-10T12:57:11;18.20;99.90
49765;DHT22;35657;51.204;-4.130;2023-05-10T12:59:37;18.00;99.90
49765;DHT22;35657;51.204;-4.130;2023-05-10T13:02:02;18.00;99.90
49765;DHT22;35657;51.204;-4.130;2023-05-10T13:04:28;17.70;99.90
49765;DHT22;35657;51.204;-4.130;2023-05-10T13:06:54;17.60;99.90
49765;DHT22;35657;51.204;-4.130;2023-05-10T13:09:24;17.40;99.90
49765;DHT22;35657;51.204;-4.130;2023-05-10T13:11:50;17.60;99.90
49765;DHT22;35657;51.204;-4.130;2023-05-10T13:14:16;17.70;99.90
49765;DHT22;35657;51.204;-4.130;2023-05-10T13:16:42;17.60;99.90
49765;DHT22;35657;51.204;-4.130;2023-05-10T13:19:07;17.40;99.90
49765;DHT22;35657;51.204;-4.130;2023-05-10T13:21:33;17.20;99.90
49765;DHT22;35657;51.204;-4.130;2023-05-10T13:23:59;17.00;99.90
49765;DHT22;35657;51.204;-4.130;2023-05-10T13:26:25;17.30;99.90
49765;DHT22;35657;51.204;-4.130;2023-05-10T13:28:51;17.30;99.90
49765;DHT22;35657;51.204;-4.130;2023-05-10T13:31:17;16.90;99.90
49765;DHT22;35657;51.204;-4.130;2023-05-10T13:33:42;16.60;99.90
49765;DHT22;35657;51.204;-4.130;2023-05-10T13:36:08;16.70;99.90
49765;DHT22;35657;51.204;-4.130;2023-05-10T13:38:34;16.90;99.90
49765;DHT22;35657;51.204;-4.130;2023-05-10T13:41:00;16.80;99.90
49765;DHT22;35657;51.204;-4.130;2023-05-10T13:43:25;16.60;99.90
49765;DHT22;35657;51.204;-4.130;2023-05-10T13:45:51;17.00;99.90
49765;DHT22;35657;51.204;-4.130;2023-05-10T13:48:17;17.40;99.90
49765;DHT22;35657;51.204;-4.130;2023-05-10T13:50:43;17.10;99.90
49765;DHT22;35657;51.204;-4.130;2023-05-10T13:53:08;17.30;99.90
49765;DHT22;35657;51.204;-4.130;2023-05-10T13:55:34;17.40;99.90
49765;DHT22;35657;51.204;-4.130;2023-05-10T13:58:01;17.10;99.90
49765;DHT22;35657;51.204;-4.130;2023-05-10T14:00:26;16.90;99.90
49765;DHT22;35657;51.204;-4.130;2023-05-10T14:02:53;17.00;99.90
49765;DHT22;35657;51.204;-4.130;2023-05-10T14:05:18;17.00;99.90
49765;DHT22;35657;51.204;-4.130;2023-05-10T14:07:44;16.90;99.90
49765;DHT22;35657;51.204;-4.130;2023-05-10T14:10:10;17.00;99.90
49765;DHT22;35657;51.204;-4.130;2023-05-10T14:12:35;16.80;99.90
49765;DHT22;35657;51.204;-4.130;2023-05-10T14:15:01;16.90;99.90
49765;DHT22;35657;51.204;-4.130;2023-05-10T14:17:27;16.70;99.90
49765;DHT22;35657;51.204;-4.130;2023-05-10T14:19:53;16.10;99.90
49765;DHT22;35657;51.204;-4.130;2023-05-10T14:22:19;16.30;99.90
49765;DHT22;35657;51.204;-4.130;2023-05-10T14:24:45;16.60;99.90
49765;DHT22;35657;51.204;-4.130;2023-05-10T14:27:12;16.70;99.90
49765;DHT22;35657;51.204;-4.130;2023-05-10T14:29:38;17.00;99.90
49765;DHT22;35657;51.204;-4.130;2023-05-10T14:32:04;17.20;99.90
49765;DHT22;35657;51.204;-4.130;2023-05-10T14:34:29;16.80;99.90
49765;DHT22;35657;51.204;-4.130;2023-05-10T14:36:55;17.00;99.90
49765;DHT22;35657;51.204;-4.130;2023-05-10T14:39:21;17.10;99.90
49765;DHT22;35657;51.204;-4.130;2023-05-10T14:41:48;17.00;99.90
49765;DHT22;35657;51.204;-4.130;2023-05-10T14:44:14;17.00;99.90
49765;DHT22;35657;51.204;-4.130;2023-05-10T14:46:40;17.10;99.90
49765;DHT22;35657;51.204;-4.130;2023-05-10T14:49:07;17.10;99.90
49765;DHT22;35657;51.204;-4.130;2023-05-10T14:51:33;17.10;99.90
49765;DHT22;35657;51.204;-4.130;2023-05-10T14:53:58;17.00;99.90
49765;DHT22;35657;51.204;-4.130;2023-05-10T14:56:25;17.20;99.90
49765;DHT22;35657;51.204;-4.130;2023-05-10T14:58:51;17.20;99.90
49765;DHT22;35657;51.204;-4.130;2023-05-10T15:01:17;17.20;99.90
49765;DHT22;35657;51.204;-4.130;2023-05-10T15:03:43;17.00;99.90
49765;DHT22;35657;51.204;-4.130;2023-05-10T15:06:08;17.00;99.90
49765;DHT22;35657;51.204;-4.130;2023-05-10T15:08:34;17.10;99.90
49765;DHT22;35657;51.204;-4.130;2023-05-10T15:11:00;17.40;99.90
49765;DHT22;35657;51.204;-4.130;2023-05-10T15:13:25;17.50;99.90
49765;DHT22;35657;51.204;-4.130;2023-05-10T15:15:51;17.50;99.90
49765;DHT22;35657;51.204;-4.130;2023-05-10T15:18:17;17.70;99.90
49765;DHT22;35657;51.204;-4.130;2023-05-10T15:20:42;17.30;99.90
49765;DHT22;35657;51.204;-4.130;2023-05-10T15:23:08;17.50;99.90
49765;DHT22;35657;51.204;-4.130;2023-05-10T15:25:34;17.50;99.90
49765;DHT22;35657;51.204;-4.130;2023-05-10T15:28:01;17.40;99.90
49765;DHT22;35657;51.204;-4.130;2023-05-10T15:30:27;17.70;99.90
49765;DHT22;35657;51.204;-4.130;2023-05-10T15:32:54;17.70;99.90
49765;DHT22;35657;51.204;-4.130;2023-05-10T15:35:20;17.50;99.90
49765;DHT22;35657;51.204;-4.130;2023-05-10T15:37:47;17.40;99.90
49765;DHT22;35657;51.204;-4.130;2023-05-10T15:40:14;17.00;99.90
49765;DHT22;35657;51.204;-4.130;2023-05-10T15:42:39;17.00;99.90
49765;DHT22;35657;51.204;-4.130;2023-05-10T15:45:05;16.90;99.90